Latest Weather Observations for Darwin Harbour

IDD60801

Issued at 10:02 pm CST Saturday 20 December 2014 (issued every 30 minutes, with the page automatically refreshed every 10 minutes)

About weather observations | Map of weather stations | Latest weather observations for NT | Other Formats
Station Details ID: 014072 Name: DARWIN NTC AWS Lat: -12.47 Lon: 130.85 Height: 0.0 m
Data from the previous 72 hours. | See also: Recent months for locations in Northern Territory
Date/Time
CST
Temp
°C
App
Temp
°C
Dew
Point
Rel
Hum
%
Delta-T
°C
Wind Press
QNH
hPa
Press
MSL
hPa
Rain
since 9 am
mm
Dir
 
Spd
km/h
Gust
km/h
Spd
kts
Gust
kts
20/10:00pm - - - - - NW 7 13 4 7 1007.4 1007.3 -
20/09:30pm - - - - - NW 4 9 2 5 1007.2 1007.1 -
20/09:00pm - - - - - NNW 9 17 5 9 1006.8 1006.7 -
20/08:30pm - - - - - NNW 6 11 3 6 1006.2 1006.1 -
20/08:00pm - - - - - N 6 13 3 7 1005.8 1005.7 -
20/07:30pm - - - - - NNW 7 13 4 7 1005.3 1005.2 -
20/07:00pm - - - - - NNW 11 20 6 11 1004.8 1004.7 -
20/06:30pm - - - - - NNW 9 17 5 9 1004.6 1004.5 -
20/06:00pm - - - - - NW 9 17 5 9 1004.4 1004.3 -
20/05:30pm - - - - - NNW 11 19 6 10 1004.0 1003.9 -
20/05:00pm - - - - - NNW 11 19 6 10 1004.1 1004.0 -
20/04:30pm - - - - - WNW 13 20 7 11 1004.1 1004.0 -
20/04:00pm - - - - - NW 9 17 5 9 1004.2 1004.1 -
20/03:30pm - - - - - WNW 11 17 6 9 1004.6 1004.5 -
20/03:00pm - - - - - WNW 11 19 6 10 1005.1 1005.0 -
20/02:30pm - - - - - W 11 17 6 9 1005.6 1005.5 -
20/02:00pm - - - - - W 7 11 4 6 1006.0 1005.9 -
20/01:30pm - - - - - SE 4 6 2 3 1006.4 1006.3 -
20/01:00pm - - - - - SE 4 6 2 3 1007.0 1006.9 -
20/12:30pm - - - - - ESE 4 6 2 3 1007.6 1007.5 -
20/12:00pm - - - - - S 2 6 1 3 1008.1 1008.0 -
20/11:30am - - - - - ESE 2 6 1 3 1008.6 1008.5 -
20/11:00am - - - - - ESE 7 11 4 6 1009.0 1008.9 -
20/10:30am - - - - - ESE 9 13 5 7 1009.3 1009.2 -
20/10:00am - - - - - SSE 6 11 3 6 1009.5 1009.4 -
20/09:30am - - - - - SSE 7 11 4 6 1009.6 1009.5 -
20/09:00am - - - - - SSE 9 17 5 9 1009.7 1009.6 -
20/08:30am - - - - - W 4 9 2 5 1009.9 1009.8 -
20/08:00am - - - - - SW 11 15 6 8 1009.6 1009.5 -
20/07:30am - - - - - SW 13 20 7 11 1009.3 1009.2 -
20/07:00am - - - - - WSW 13 19 7 10 1009.2 1009.1 -
20/06:30am - - - - - WSW 15 20 8 11 1009.3 1009.2 -
20/06:00am - - - - - SW 11 17 6 9 1009.0 1008.9 -
20/05:30am - - - - - W 17 28 9 15 1009.7 1009.6 -
20/05:22am - - - - - WSW 19 28 10 15 1009.3 1009.2 -
20/05:00am - - - - - SW 24 35 13 19 1007.3 1007.2 -
20/04:30am - - - - - WSW 15 20 8 11 1007.0 1006.9 -
20/04:00am - - - - - W 17 20 9 11 1007.4 1007.3 -
20/03:30am - - - - - W 11 17 6 9 1007.3 1007.2 -
20/03:00am - - - - - WNW 13 17 7 9 1007.7 1007.6 -
20/02:30am - - - - - WNW 9 17 5 9 1007.5 1007.4 -
20/02:00am - - - - - WNW 11 17 6 9 1007.6 1007.5 -
20/01:30am - - - - - WNW 9 17 5 9 1007.4 1007.3 -
20/01:00am - - - - - W 6 9 3 5 1007.9 1007.8 -
20/12:30am - - - - - CALM 0 2 0 1 1009.4 1009.3 -
20/12:00am - - - - - W 2 6 1 3 1009.7 1009.6 -
 
Date/Time
CST
Temp
°C
App
Temp
°C
Dew
Point
Rel
Hum
%
Delta-T
°C
Wind Press
QNH
hPa
Press
MSL
hPa
Rain
since 9 am
mm
Dir
 
Spd
km/h
Gust
km/h
Spd
kts
Gust
kts
19/11:30pm - - - - - W 2 4 1 2 1009.3 1009.2 -
19/11:00pm - - - - - WSW 4 6 2 3 1009.8 1009.7 -
19/10:30pm - - - - - SW 4 6 2 3 1009.8 1009.7 -
19/10:00pm - - - - - WSW 6 9 3 5 1009.1 1009.0 -
19/09:30pm - - - - - WSW 6 7 3 4 1008.6 1008.5 -
19/09:00pm - - - - - WSW 6 9 3 5 1008.2 1008.1 -
19/08:30pm - - - - - W 9 13 5 7 1007.9 1007.8 -
19/08:00pm - - - - - W 7 13 4 7 1007.4 1007.3 -
19/07:30pm - - - - - WNW 6 9 3 5 1007.1 1007.0 -
19/07:00pm - - - - - SW 20 28 11 15 1006.9 1006.8 -
19/06:30pm - - - - - WSW 19 24 10 13 1007.1 1007.0 -
19/06:00pm - - - - - WNW 13 22 7 12 1006.1 1006.0 -
19/05:30pm - - - - - WNW 15 24 8 13 1006.0 1005.9 -
19/05:00pm - - - - - WNW 15 24 8 13 1005.5 1005.4 -
19/04:30pm - - - - - WNW 17 26 9 14 1005.7 1005.6 -
19/04:00pm - - - - - WNW 15 28 8 15 1005.7 1005.6 -
19/03:30pm - - - - - NW 15 26 8 14 1005.8 1005.7 -
19/03:00pm - - - - - NW 11 20 6 11 1006.5 1006.4 -
19/02:30pm - - - - - NW 15 24 8 13 1007.0 1006.9 -
19/02:00pm - - - - - WNW 15 24 8 13 1007.6 1007.5 -
19/01:30pm - - - - - WNW 13 20 7 11 1008.0 1007.9 -
19/01:00pm - - - - - W 11 17 6 9 1008.5 1008.4 -
19/12:30pm - - - - - W 7 9 4 5 1009.1 1009.0 -
19/12:00pm - - - - - ESE 4 7 2 4 1009.4 1009.3 -
19/11:30am - - - - - SE 6 9 3 5 1009.5 1009.4 -
19/11:00am - - - - - SW 4 7 2 4 1010.0 1009.9 -
19/10:30am - - - - - WSW 6 9 3 5 1010.1 1010.0 -
19/10:00am - - - - - WSW 6 9 3 5 1010.2 1010.1 -
19/09:30am - - - - - WSW 9 13 5 7 1010.4 1010.3 -
19/09:00am - - - - - WSW 11 17 6 9 1010.1 1010.0 -
19/08:30am - - - - - WSW 13 19 7 10 1010.0 1009.9 -
19/08:00am - - - - - WNW 11 13 6 7 1009.6 1009.5 -
19/07:30am - - - - - WNW 11 13 6 7 1009.5 1009.4 -
19/07:00am - - - - - WNW 7 11 4 6 1009.3 1009.2 -
19/06:30am - - - - - W 9 13 5 7 1008.7 1008.6 -
19/06:00am - - - - - W 9 13 5 7 1008.3 1008.2 -
19/05:30am - - - - - WNW 7 13 4 7 1008.0 1007.9 -
19/05:00am - - - - - W 9 15 5 8 1007.8 1007.7 -
19/04:30am - - - - - W 11 19 6 10 1007.8 1007.7 -
19/04:00am - - - - - W 7 15 4 8 1007.6 1007.5 -
19/03:30am - - - - - WNW 7 15 4 8 1007.6 1007.5 -
19/03:00am - - - - - WNW 6 13 3 7 1007.8 1007.7 -
19/02:30am - - - - - W 13 17 7 9 1008.1 1008.0 -
19/02:00am - - - - - W 11 19 6 10 1008.3 1008.2 -
19/01:30am - - - - - W 13 19 7 10 1008.2 1008.1 -
19/01:00am - - - - - W 11 19 6 10 1008.3 1008.2 -
19/12:30am - - - - - W 13 19 7 10 1008.4 1008.3 -
19/12:00am - - - - - WNW 9 13 5 7 1008.4 1008.3 -
 
Date/Time
CST
Temp
°C
App
Temp
°C
Dew
Point
Rel
Hum
%
Delta-T
°C
Wind Press
QNH
hPa
Press
MSL
hPa
Rain
since 9 am
mm
Dir
 
Spd
km/h
Gust
km/h
Spd
kts
Gust
kts
18/11:30pm - - - - - W 11 17 6 9 1008.6 1008.5 -
18/11:00pm - - - - - WNW 7 13 4 7 1008.6 1008.5 -
18/10:30pm - - - - - W 13 19 7 10 1008.4 1008.3 -
18/10:00pm - - - - - WNW 11 19 6 10 1008.4 1008.3 -
18/09:30pm - - - - - W 17 22 9 12 1008.1 1008.0 -
18/09:00pm - - - - - WNW 15 20 8 11 1008.0 1007.9 -
18/08:30pm - - - - - WNW 15 19 8 10 1007.8 1007.7 -
18/08:00pm - - - - - WNW 13 19 7 10 1007.4 1007.3 -
18/07:30pm - - - - - W 15 20 8 11 1007.0 1006.9 -
18/07:00pm - - - - - W 15 20 8 11 1006.8 1006.7 -
18/06:30pm - - - - - W 17 22 9 12 1006.3 1006.2 -
18/06:00pm - - - - - W 13 17 7 9 1005.7 1005.6 -
18/05:30pm - - - - - W 13 20 7 11 1005.7 1005.6 -
18/05:00pm - - - - - WSW 6 9 3 5 1005.5 1005.4 -
18/04:30pm - - - - - WSW 11 19 6 10 1005.6 1005.5 -
18/04:00pm - - - - - W 17 22 9 12 1006.1 1006.0 -
18/03:30pm - - - - - W 9 13 5 7 1006.0 1005.9 -
18/03:00pm - - - - - WSW 11 19 6 10 1007.2 1007.1 -
18/02:30pm - - - - - WNW 13 22 7 12 1007.0 1006.9 -
18/02:00pm - - - - - NW 11 20 6 11 1007.4 1007.3 -
18/01:30pm - - - - - WNW 13 22 7 12 1007.7 1007.6 -
18/01:00pm - - - - - WNW 15 22 8 12 1008.1 1008.0 -
18/12:30pm - - - - - W 17 24 9 13 1008.5 1008.4 -
18/12:00pm - - - - - W 22 35 12 19 1009.0 1008.9 -
18/11:30am - - - - - NW 13 24 7 13 1009.1 1009.0 -
18/11:00am - - - - - NW 15 28 8 15 1009.4 1009.3 -
18/10:30am - - - - - NW 7 20 4 11 1009.5 1009.4 -
18/10:00am - - - - - WNW 11 19 6 10 1009.4 1009.3 -
18/09:30am - - - - - WNW 11 19 6 10 1009.1 1009.0 -
18/09:00am - - - - - WNW 11 17 6 9 1008.9 1008.8 -
18/08:30am - - - - - WNW 11 17 6 9 1008.4 1008.3 -
18/08:00am - - - - - W 9 17 5 9 1008.2 1008.1 -
18/07:30am - - - - - WNW 9 17 5 9 1007.8 1007.7 -
18/07:00am - - - - - WNW 9 15 5 8 1007.6 1007.5 -
18/06:30am - - - - - W 7 11 4 6 1007.2 1007.1 -
18/06:00am - - - - - W 7 13 4 7 1006.6 1006.5 -
18/05:30am - - - - - W 6 13 3 7 1006.3 1006.2 -
18/05:00am - - - - - W 9 13 5 7 1006.1 1006.0 -
18/04:30am - - - - - WNW 6 11 3 6 1005.8 1005.7 -
18/04:00am - - - - - WNW 7 11 4 6 1005.6 1005.5 -
18/03:30am - - - - - W 11 17 6 9 1005.5 1005.4 -
18/03:00am - - - - - W 13 19 7 10 1005.6 1005.5 -
18/02:30am - - - - - W 11 17 6 9 1005.6 1005.5 -
18/02:00am - - - - - W 13 17 7 9 1005.9 1005.8 -
18/01:30am - - - - - W 13 17 7 9 1006.1 1006.0 -
18/01:00am - - - - - WNW 13 19 7 10 1006.3 1006.2 -
18/12:30am - - - - - NW 7 15 4 8 1006.5 1006.4 -
18/12:00am - - - - - NW 6 13 3 7 1006.9 1006.8 -
 
Date/Time
CST
Temp
°C
App
Temp
°C
Dew
Point
Rel
Hum
%
Delta-T
°C
Wind Press
QNH
hPa
Press
MSL
hPa
Rain
since 9 am
mm
Dir
 
Spd
km/h
Gust
km/h
Spd
kts
Gust
kts
17/11:30pm - - - - - NW 6 13 3 7 1007.5 1007.4 -
17/11:00pm - - - - - NW 6 11 3 6 1007.5 1007.4 -
17/10:30pm - - - - - W 15 22 8 12 1006.9 1006.8 -

Other Formats:

Comma delimited format used in spreadsheet applications
http://www.bom.gov.au/fwo/IDD60801/IDD60801.95122.axf

JavaScript Object Notation format (JSON) in row-major order
http://www.bom.gov.au/fwo/IDD60801/IDD60801.95122.json